Atwood, CO

8:11 PM MDT on July 12, 2014 (GMT -0600)
Sterling Municipal (KSTK) Elev 4039 ft | 40.62 °N, 103.26 °W | Change Station

Current weather conditions updated 16 minutes ago

Clear
Clear
79 °F
Feels Like 79 °F
N
0
Wind Variable Wind from North

Tomorrow is forecast to be nearly the same temperature as today.

Today
High -- | Low -- °F
--% Chance of Precip.
Yesterday
High -- | Low -- °F
Precip. -- in
5:33 AM 8:24 PM
Waxing Gibbous, 99% visible
Pressure 30.20 in
Visibility 10.0 miles
Clouds Clear
Dew Point 68 °F
Humidity 69%
Rainfall 0.00 in
Snow Depth Not available.
UV 0 out of 12
Pollen 3.70 out of 12
Air Quality Not available.
Flu Activity Local Activity
METAR KSTK 130155Z AUTO 00000KT 10SM CLR 26/20 A3020 RMK AO2

More Conditions Fewer Conditions

Pressure 30.20 in
Visibility 10.0 miles
Clouds Clear
Dew Point 68 °F
Humidity 69%
Rainfall 0.00 in
Snow Depth Not available.
UV 0 out of 12
Pollen 3.70 out of 12
Air Quality Not available.
Flu Activity Local Activity
METAR KSTK 130155Z AUTO 00000KT 10SM CLR 26/20 A3020 RMK AO2

More Conditions Fewer Conditions

10-Day Weather Forecast

Almanac

Astronomy

Jul. 12, 2014 Rise Set
Actual Time 5:33 AM MDT 8:24 PM MDT
Civil Twilight 5:00 AM MDT 8:56 PM MDT
Nautical Twilight 4:19 AM MDT 9:37 PM MDT
Astronomical Twilight 3:32 AM MDT 10:24 PM MDT
Moon 8:27 PM MDT (7/12) 5:55 AM MDT (7/12)
Length of Visible Light 15h 55m
Length of Day
14h 50m
Tomorrow will be 1m 15s shorter.
Waxing Gibbous, 99% of the Moon is Illuminated
Today
Waxing Gibbous
Jul 18
Last Quarter
Jul 26
New
Aug 3
First Quarter
Aug 10
Full

Today's Extremes

State Highs State Lows

Community

WunderPhotos

Upload Photos

1,733,049 photos uploaded!

WunderBlogs® & News

Nearby

Snow Depth

Station Depth Elevation
Copeland Lake 0 in 8600 ft
Niwot 0 in 9910 ft
University Camp 0 in 10300 ft
Lake Irene 1 in 10700 ft
Joe Wright 0 in 10120 ft

Earthquake Activity

City Distance Mag. Time & Date
No recent earthquake activity has been reported nearby.
Minimum magnitude displayed is 2.5.

Coastal Water Temperatures

Place Temperature
No Stations Reporting

Nearby Weather Stations

Station Location Temp. Heat Index Dew Point Humidity Wind Precip. Elev Updated Type
Northern Washington County, Akron, CO 75.6 °F 78 °F 61 °F 61% North  at  4.7 mph - / hr 4453 ft 8:00 PM MDT Normal

Show More Stations Show Fewer Stations